SCHW weather

Hualaihué Airport
Hualaihue, Los Lagos Region, Chile

Public forecast

Using degrees Celsius for public forecast. Weather courtesy of forecast.io.

Closest aviation weather report (METAR) to Hualaihué Airport

Closest report is El Tepual Airport, 39.8 nm (73.7 km) NNW. Retrieved 2019/10/16 18:00 UTC (4 minutes ago):

SCTE 161800Z VRB06KT 9999 BKN035 17/05 Q1016 NOSIG

Closest aviation forecast (TAF) to Hualaihué Airport

Closest forecast is El Tepual Airport, 39.8 nm (73.7 km) NNW. Retrieved 2019/10/16 18:00 UTC (4 minutes ago):

TAF SCTE 161609Z 1618/1718 35008KT 9999 BKN035 TX16/1619Z TN05/1707Z BECMG 1620/1622 23008KT BKN045 BECMG 1701/1703 VRB02KT BECMG 1706/1708 02004KT SCT030 BECMG 1709/1711 01007KT BKN020 BKN040 TEMPO 1716/1718 34010KT 8000 -SHRA BKN020